Аэропорт: Алматы. Алма-Ата

ICAO: UAAA

METAR:
2019/05/26 14:00
UAAA 261400Z 15002MPS 9999 SCT050CB BKN100 19/10 Q1021 R23L/CLRD65 NOSIG
METAR:
2019/05/26 12:18
TAF TAF UAAA 261100Z 2612/2712 28004MPS 9999 SCT050CB BKN100 TX25/2708Z TN12/2701Z 
      TEMPO 2612/2618 24007G15MPS 5000 -TSRA BR BKN030CB BKN100 
      TEMPO 2618/2622 20004MPS 5000 BR FU BKN020CB BKN100 
      TEMPO 2704/2712 02007G12MPS -TSRA BKN030CB BKN100